Terminal Aerodrome Forecast
Issued by NWS

Current Version | Previous Version | Text Only | Print | Product List | Glossary On
Versions: 1 2 3 4 5 6 7 8 9 10 11 12 13 14 15 16 17 18 19 20 21 22 23 24 25 26 27 28 29 30
000
FTUS41 KBOX 202326
TAFBED
TAF
KBED 202326Z 2100/2124 20004KT P6SM OVC100
     FM211200 VRB03KT P6SM OVC030
     FM211300 09004KT P6SM -SHRA OVC030
     FM211500 11006KT 3SM -SHRA OVC025
     FM212100 08005KT P6SM OVC015=

USA.gov is the U.S. government's official web portal to all federal, state and local government web resources and services.